Terminal Aerodrome Forecast
Issued by NWS Charleston, WV

Current Version | Previous Version | Graphics & Text | Print | Product List | Glossary On
Versions: 1 2 3 4 5 6 7 8 9 10 11 12 13 14 15 16 17 18 19 20 21 22 23 24
401
FTUS41 KRLX 230245 AAA
TAFBKW
TAF AMD
KBKW 230245Z 2303/2324 21007KT P6SM SHRA OVC040
     FM230600 18008KT P6SM OVC030
     FM231300 22012G18KT P6SM BKN040
     FM231900 22012G18KT P6SM SHRA OVC035
     FM232300 22009KT P6SM OVC040=

USA.gov is the U.S. government's official web portal to all federal, state and local government web resources and services.